Freedom, Wyoming
Current Conditions -  °F | °C
As of 4:55 PM on Wednesday 28 Jan 2015 (Local Time) from KAFO Reporting Station
Haze Haze  
Wind Chill: 34°   Ceiling: 2300
Heat Index: 34°   Visibility: 4mi
Dew Point: 32°   Wind: 0mph
Humidity: 93%   Direction: NA
Pressure: 30.3"   Gusts: NA
Location:  42.98°N, 111.04°W
Report Text: KAFO 282355Z AUTO 00000KT 4SM BR OVC023 01/00 A3030 RMK AO2
Loading
Personal Weather Stations






























Interactive Weather Map New forecast layout! Learn more

10-Day Weather Forecast

Advertisements
Track Severe Weather on mobile